Time;durP1;ratioP1;P1;durP2;ratioP2;P2;SDS_P1;SDS_P2;PMS_P1;PMS_P2;Temp;Humidity;BMP_temperature;BMP_pressure;BME280_temperature;BME280_humidity;BME280_pressure;Samples;Min_cycle;Max_cycle;Signal;HPM_P1;HPM_P2
2022/09/12 00:04:10;;;;;;;8.50;6.40;;;;;;;13.34;80.32;100141.44;30734321;28;96799;-66
2022/09/12 00:19:11;;;;;;;8.93;5.40;;;;;;;13.43;80.41;100132.31;30655470;28;96730;-66
2022/09/12 00:34:12;;;;;;;6.37;4.77;;;;;;;13.61;80.42;100147.09;30610373;28;96992;-66
2022/09/12 00:49:26;;;;;;;8.27;4.63;;;;;;;13.71;80.03;100153.78;30626870;28;96738;-68
2022/09/12 01:04:27;;;;;;;5.80;4.30;;;;;;;13.72;79.87;100154.63;30630080;28;97094;-65
2022/09/12 01:19:56;;;;;;;6.80;4.17;;;;;;;13.63;79.58;100158.47;30628374;28;97051;-69
2022/09/12 01:35:07;;;;;;;6.83;3.97;;;;;;;13.46;79.23;100155.19;30625270;28;97057;-64
2022/09/12 01:50:15;;;;;;;5.17;3.70;;;;;;;13.42;79.31;100160.06;30630189;28;97359;-66
2022/09/12 02:05:51;;;;;;;7.33;3.77;;;;;;;13.50;79.38;100156.47;30727455;28;96722;-69
2022/09/12 02:20:54;;;;;;;8.70;3.87;;;;;;;13.45;79.56;100157.03;30733318;28;96718;-66
2022/09/12 02:36:05;;;;;;;6.20;3.90;;;;;;;13.24;78.67;100155.13;30611927;28;1282610;-66
2022/09/12 02:51:06;;;;;;;11.20;3.80;;;;;;;13.10;79.23;100156.81;30619647;28;97226;-70
2022/09/12 03:06:30;;;;;;;7.03;4.18;;;;;;;13.17;79.41;100171.09;30616446;28;97211;-66
2022/09/12 03:21:40;;;;;;;9.23;3.87;;;;;;;13.20;79.22;100165.38;30615282;28;97072;-66
2022/09/12 03:36:41;;;;;;;7.57;3.97;;;;;;;13.10;79.10;100159.50;30613673;28;96774;-67
2022/09/12 03:51:42;;;;;;;6.72;4.57;;;;;;;13.09;79.57;100168.53;30612124;28;100998;-66
2022/09/12 04:06:42;;;;;;;8.93;4.97;;;;;;;13.09;79.60;100173.06;30651664;28;97279;-68
2022/09/12 04:21:43;;;;;;;8.40;4.82;;;;;;;13.08;79.50;100177.59;30644875;28;97598;-65
2022/09/12 04:36:43;;;;;;;7.45;4.28;;;;;;;13.19;79.37;100187.81;30714323;28;117285;-64
2022/09/12 04:51:44;;;;;;;8.25;3.97;;;;;;;13.46;79.56;100184.63;30727590;28;107012;-65
2022/09/12 05:06:46;;;;;;;7.63;4.70;;;;;;;13.71;78.89;100198.50;30726358;28;96706;-66
2022/09/12 05:21:46;;;;;;;8.67;4.23;;;;;;;13.84;78.73;100203.94;30739582;28;99341;-64
2022/09/12 05:36:47;;;;;;;7.72;4.60;;;;;;;14.01;78.37;100215.25;30742848;28;100465;-63
2022/09/12 05:51:47;;;;;;;13.80;4.38;;;;;;;14.46;77.97;100236.44;30745478;28;97451;-64
2022/09/12 06:06:47;;;;;;;12.82;4.88;;;;;;;15.04;77.09;100246.13;30742495;28;96822;-64
2022/09/12 06:21:48;;;;;;;7.32;4.20;;;;;;;15.75;75.55;100228.84;30739656;28;97299;-63
2022/09/12 06:36:49;;;;;;;9.23;3.27;;;;;;;17.06;74.62;100237.31;30738373;28;96789;-65
2022/09/12 06:51:49;;;;;;;6.80;3.03;;;;;;;17.77;71.46;100243.63;30738475;28;96726;-65
2022/09/12 07:06:50;;;;;;;5.63;2.13;;;;;;;18.45;69.31;100239.41;30736188;28;96764;-65
2022/09/12 07:21:50;;;;;;;4.65;2.13;;;;;;;20.01;66.58;100243.66;30735947;28;96749;-65
2022/09/12 07:36:50;;;;;;;5.75;2.17;;;;;;;20.66;62.02;100251.94;30733318;28;96826;-65
2022/09/12 07:51:51;;;;;;;5.23;2.20;;;;;;;22.21;58.95;100266.69;30731156;28;106574;-63
2022/09/12 08:06:52;;;;;;;5.90;2.77;;;;;;;22.24;54.52;100272.47;30730106;28;97461;-65
2022/09/12 08:21:52;;;;;;;8.97;1.50;;;;;;;23.62;52.18;100280.13;30728981;28;97687;-63
2022/09/12 08:36:53;;;;;;;5.28;2.00;;;;;;;24.81;46.45;100282.84;30728392;28;96735;-63
2022/09/12 08:51:56;;;;;;;4.10;1.90;;;;;;;26.67;42.30;100267.75;30728072;28;96743;-63
2022/09/12 09:06:59;;;;;;;6.70;1.73;;;;;;;33.42;31.24;100274.97;30740592;28;97022;-62
2022/09/12 09:22:06;;;;;;;4.23;1.73;;;;;;;27.47;33.95;100281.75;30748868;28;96721;-65
2022/09/12 09:37:28;;;;;;;6.33;2.40;;;;;;;23.77;39.92;100279.47;30747744;28;97348;-68
2022/09/12 09:52:31;;;;;;;4.93;2.83;;;;;;;22.96;43.19;100270.88;30745771;28;98022;-65
2022/09/12 10:07:32;;;;;;;8.23;2.27;;;;;;;31.56;31.57;100268.69;30745152;28;97184;-65
2022/09/12 10:22:32;;;;;;;6.30;2.53;;;;;;;32.53;29.21;100260.06;30742129;28;96736;-64
2022/09/12 10:37:38;;;;;;;5.30;1.73;;;;;;;35.01;27.12;100261.41;30742485;28;97518;-66
2022/09/12 10:52:38;;;;;;;3.93;1.70;;;;;;;34.32;24.97;100254.19;30740480;28;97518;-66
2022/09/12 11:08:01;;;;;;;5.80;1.80;;;;;;;34.86;23.44;100254.50;30737955;28;108444;-66
2022/09/12 11:23:30;;;;;;;5.20;1.80;;;;;;;43.89;16.10;100245.19;30734393;28;97291;-65
2022/09/12 11:38:50;;;;;;;1.97;1.13;;;;;;;48.37;12.59;100228.81;30650375;28;97607;-66
2022/09/12 11:54:01;;;;;;;4.73;1.30;;;;;;;48.00;12.10;100213.66;30626339;28;97554;-65
2022/09/12 12:09:03;;;;;;;2.03;1.20;;;;;;;46.22;12.82;100213.28;30611926;28;97702;-64
2022/09/12 12:24:06;;;;;;;2.53;1.60;;;;;;;33.84;21.65;100206.28;30600940;28;97704;-66
2022/09/12 12:39:33;;;;;;;2.57;1.67;;;;;;;28.01;27.69;100203.44;30609279;28;97111;-71
2022/09/12 12:54:39;;;;;;;3.53;1.50;;;;;;;28.44;28.26;100194.53;30611412;28;97381;-66
2022/09/12 13:09:46;;;;;;;2.57;1.40;;;;;;;26.71;30.23;100188.00;30619950;28;96824;-68
2022/09/12 13:24:50;;;;;;;4.53;1.70;;;;;;;24.70;33.55;100174.94;30645959;28;97093;-65
2022/09/12 13:39:57;;;;;;;5.77;2.03;;;;;;;23.47;36.21;100180.19;30735246;28;97210;-70
2022/09/12 13:54:59;;;;;;;4.57;2.10;;;;;;;22.81;37.94;100171.00;30741881;28;97126;-65
2022/09/12 14:10:00;;;;;;;2.47;1.77;;;;;;;23.14;38.45;100157.53;30743442;28;96686;-66
2022/09/12 14:25:01;;;;;;;4.77;1.80;;;;;;;23.77;38.31;100151.63;30741551;28;96748;-67
2022/09/12 14:40:04;;;;;;;2.60;1.80;;;;;;;24.34;38.12;100150.16;30740658;28;96828;-67
2022/09/12 14:55:28;;;;;;;3.80;1.80;;;;;;;23.49;38.85;100150.84;30665147;28;96815;-69
2022/09/12 15:10:38;;;;;;;4.37;1.73;;;;;;;22.55;40.37;100144.56;30607133;28;97289;-66
2022/09/12 15:25:38;;;;;;;5.37;1.80;;;;;;;21.69;41.51;100143.78;30606039;28;97888;-67
2022/09/12 15:40:39;;;;;;;3.00;1.90;;;;;;;21.09;42.66;100134.28;30603782;28;118245;-69
2022/09/12 15:55:40;;;;;;;4.80;2.03;;;;;;;20.58;43.97;100142.16;30687185;28;96726;-66
2022/09/12 16:10:42;;;;;;;3.42;1.88;;;;;;;19.92;45.56;100137.69;30730935;28;97221;-66
2022/09/12 16:25:43;;;;;;;7.43;2.50;;;;;;;19.01;47.90;100131.53;30728402;28;96849;-68
2022/09/12 16:40:43;;;;;;;11.88;3.47;;;;;;;18.20;50.08;100135.09;30728973;28;96791;-68
2022/09/12 16:55:49;;;;;;;7.55;3.22;;;;;;;17.50;52.69;100117.19;30722767;28;110634;-66
2022/09/12 17:10:50;;;;;;;6.27;3.40;;;;;;;16.98;54.89;100119.97;30623058;28;100182;-67
2022/09/12 17:25:51;;;;;;;10.07;3.38;;;;;;;16.49;56.93;100106.03;30715880;28;96751;-66
2022/09/12 17:40:51;;;;;;;9.10;3.53;;;;;;;16.08;58.85;100125.97;30639095;28;96910;-66
2022/09/12 17:55:51;;;;;;;24.52;10.25;;;;;;;15.50;61.31;100132.75;30672713;28;113586;-66
2022/09/12 18:10:52;;;;;;;15.63;5.65;;;;;;;15.28;63.21;100139.28;30744561;28;96807;-66
2022/09/12 18:26:01;;;;;;;11.32;5.43;;;;;;;14.92;63.95;100145.78;30706970;28;96975;-66
2022/09/12 18:41:06;;;;;;;7.70;4.10;;;;;;;14.59;65.32;100151.78;30619962;28;96789;-66
2022/09/12 18:56:10;;;;;;;12.47;4.17;;;;;;;14.35;66.30;100140.47;30620544;28;98471;-66
2022/09/12 19:11:11;;;;;;;10.10;4.37;;;;;;;14.05;67.21;100138.00;30700784;28;97311;-66
2022/09/12 19:26:13;;;;;;;12.13;3.87;;;;;;;13.90;68.25;100139.94;30660434;28;97071;-66
2022/09/12 19:41:14;;;;;;;10.60;4.80;;;;;;;13.72;69.03;100130.53;30735195;28;96671;-67
2022/09/12 19:56:14;;;;;;;10.23;5.35;;;;;;;13.52;70.31;100120.47;30734531;28;97413;-66
2022/09/12 20:11:17;;;;;;;11.02;6.00;;;;;;;13.22;70.61;100103.69;30733024;28;96863;-66
2022/09/12 20:26:19;;;;;;;12.77;8.17;;;;;;;13.09;71.79;100103.53;30732320;28;96731;-70
2022/09/12 20:41:19;;;;;;;12.20;7.30;;;;;;;12.88;72.51;100102.47;30720365;28;97242;-70
2022/09/12 20:56:21;;;;;;;14.15;8.90;;;;;;;12.62;72.73;100092.28;30707932;28;97303;-65
2022/09/12 21:11:21;;;;;;;14.57;8.03;;;;;;;12.47;73.63;100090.44;30729497;28;97233;-64
2022/09/12 21:26:22;;;;;;;14.60;7.10;;;;;;;12.24;74.09;100108.41;30681571;28;113664;-65
2022/09/12 21:41:22;;;;;;;13.75;7.38;;;;;;;12.03;75.06;100099.28;30752435;28;115082;-66
2022/09/12 21:56:22;;;;;;;12.18;7.88;;;;;;;11.77;76.05;100095.13;30745904;28;104127;-67
2022/09/12 22:11:22;;;;;;;13.48;8.60;;;;;;;11.56;76.85;100077.13;30744682;28;113250;-65
2022/09/12 22:26:23;;;;;;;14.00;8.93;;;;;;;11.40;76.96;100075.44;30743542;28;113424;-68
2022/09/12 22:41:23;;;;;;;14.98;9.85;;;;;;;11.19;77.66;100070.75;30742198;28;97340;-66
2022/09/12 22:56:24;;;;;;;16.30;8.82;;;;;;;11.17;78.56;100072.75;30741360;28;96722;-66
2022/09/12 23:11:26;;;;;;;21.20;13.33;;;;;;;11.08;78.88;100047.97;30739705;28;96664;-67
2022/09/12 23:26:29;;;;;;;15.20;9.73;;;;;;;10.97;79.44;100035.06;30737405;28;96780;-66
2022/09/12 23:41:30;;;;;;;12.77;8.30;;;;;;;10.89;79.45;100021.78;30736563;28;96767;-66
2022/09/12 23:56:30;;;;;;;14.75;9.32;;;;;;;10.76;79.60;100007.22;30735630;28;96846;-67
